Time;durP1;ratioP1;P1;durP2;ratioP2;P2;SDS_P1;SDS_P2;PMS_P1;PMS_P2;Temp;Humidity;BMP_temperature;BMP_pressure;BME280_temperature;BME280_humidity;BME280_pressure;Samples;Min_cycle;Max_cycle;Signal;HPM_P1;HPM_P2
2024/03/20 07:20:11;;;;;;;1.15;0.77;;;;;;;23.09;29.27;95175.50;6225600;22;20020;-89
2024/03/20 07:22:36;;;;;;;2.42;0.90;;;;;;;24.59;27.00;95180.97;6133954;23;20017;-88
2024/03/20 07:37:50;;;;;;;1.48;1.10;;;;;;;24.73;27.60;95168.75;6202514;23;20039;-88
2024/03/20 07:40:16;;;;;;;1.80;1.30;;;;;;;24.72;27.83;95179.63;6187373;23;20078;-89
2024/03/20 07:42:42;;;;;;;2.00;1.35;;;;;;;25.16;27.10;95171.03;6162905;23;20008;-87
2024/03/20 07:45:09;;;;;;;2.13;1.55;;;;;;;24.30;29.28;95175.38;6187211;23;20013;-87
2024/03/20 07:52:36;;;;;;;2.30;0.80;;;;;;;25.51;27.17;95162.16;6183783;23;20032;-88
2024/03/20 07:55:02;;;;;;;1.50;0.73;;;;;;;26.53;25.84;95173.25;6138540;23;20012;-87
2024/03/20 08:15:34;;;;;;;1.90;0.93;;;;;;;27.14;25.54;95184.47;6232413;22;20036;-86
2024/03/20 08:18:00;;;;;;;1.45;1.13;;;;;;;27.43;25.73;95195.13;6162260;23;20001;-86
2024/03/20 08:20:26;;;;;;;3.75;1.20;;;;;;;26.56;26.42;95203.91;6187277;23;20087;-87
2024/03/20 08:22:51;;;;;;;1.70;1.30;;;;;;;26.39;26.06;95189.13;6186073;23;20000;-87
2024/03/20 08:27:43;;;;;;;1.33;1.20;;;;;;;26.35;27.32;95190.75;6216233;22;20147;-89
2024/03/20 08:30:09;;;;;;;1.75;1.10;;;;;;;25.88;26.46;95182.22;6218169;23;20016;-88
2024/03/20 08:32:34;;;;;;;2.35;1.38;;;;;;;26.51;28.38;95189.53;6193311;23;20086;-87
2024/03/20 08:35:04;;;;;;;2.08;1.40;;;;;;;27.44;27.08;95178.03;6193123;23;20012;-87
2024/03/20 08:39:55;;;;;;;3.37;1.57;;;;;;;27.63;25.07;95178.84;6243544;22;20081;-89
2024/03/20 08:42:20;;;;;;;1.60;1.42;;;;;;;26.46;27.57;95175.44;6192799;23;20241;-87
2024/03/20 08:47:11;;;;;;;2.80;1.88;;;;;;;26.52;26.13;95185.81;6186167;23;20017;-88
2024/03/20 08:49:51;;;;;;;3.28;1.50;;;;;;;25.63;28.44;95185.81;6175226;23;20009;-89
2024/03/20 08:52:23;;;;;;;2.65;1.40;;;;;;;24.82;29.96;95166.31;6161324;23;20047;-90
2024/03/20 10:52:14;;;;;;;2.58;1.00;;;;;;;21.09;35.33;95137.34;6235217;22;20020;-90
2024/03/20 10:54:40;;;;;;;2.28;1.20;;;;;;;21.74;35.39;95140.22;6135770;23;20005;-91
2024/03/20 10:57:06;;;;;;;2.65;1.20;;;;;;;21.59;35.24;95139.03;6184132;23;20024;-92
2024/03/20 10:59:36;;;;;;;1.58;1.10;;;;;;;21.82;33.42;95135.28;6183721;23;20053;-89
2024/03/20 12:33:03;;;;;;;1.58;1.00;;;;;;;21.31;34.64;95128.63;6199907;23;20032;-86
2024/03/20 12:35:29;;;;;;;1.15;1.05;;;;;;;21.78;33.40;95134.19;6139638;23;20025;-87
2024/03/20 12:37:54;;;;;;;2.33;1.20;;;;;;;21.83;32.27;95144.81;6162831;23;20001;-88
2024/03/20 12:42:45;;;;;;;2.00;1.00;;;;;;;21.71;33.50;95146.03;6196243;23;20025;-87
2024/03/20 12:45:11;;;;;;;1.00;0.90;;;;;;;21.88;32.19;95153.88;6162760;23;20019;-88
2024/03/20 12:47:36;;;;;;;1.77;1.20;;;;;;;21.89;35.73;95145.66;6187562;23;20079;-86
2024/03/20 12:50:02;;;;;;;1.65;1.30;;;;;;;21.99;33.58;95134.38;6187388;23;20047;-88
2024/03/20 12:52:29;;;;;;;2.63;1.90;;;;;;;21.57;34.55;95142.97;6163190;23;20016;-88
2024/03/20 12:59:57;;;;;;;1.60;1.40;;;;;;;21.57;34.28;95142.97;6172235;22;20032;-87
2024/03/20 13:02:23;;;;;;;1.58;1.13;;;;;;;21.92;34.01;95137.22;6157135;23;20009;-87
2024/03/20 13:04:49;;;;;;;1.27;1.15;;;;;;;21.66;33.46;95141.47;6157450;23;20016;-87
2024/03/20 13:07:18;;;;;;;3.03;1.20;;;;;;;21.69;33.96;95140.97;6132765;23;20005;-87
2024/03/20 13:09:46;;;;;;;2.25;1.20;;;;;;;21.69;33.54;95145.47;6158812;23;20009;-88
2024/03/20 13:12:16;;;;;;;1.90;1.20;;;;;;;21.46;32.33;95148.16;6134169;23;20036;-87
2024/03/20 13:14:42;;;;;;;1.77;1.27;;;;;;;21.32;32.55;95146.88;6182142;23;20005;-86
2024/03/20 13:17:19;;;;;;;1.10;1.00;;;;;;;21.16;34.78;95137.97;6191220;22;20129;-87
2024/03/20 13:19:45;;;;;;;1.10;1.00;;;;;;;21.81;33.27;95143.47;6157389;23;20009;-87
2024/03/20 13:22:19;;;;;;;1.38;1.00;;;;;;;21.96;32.76;95145.47;6181683;23;20012;-88
2024/03/20 13:27:11;;;;;;;1.40;1.00;;;;;;;21.75;33.72;95132.03;6214271;22;19978;-87
2024/03/20 13:29:43;;;;;;;3.33;1.00;;;;;;;22.05;30.20;95128.88;6186855;23;20048;-86
2024/03/20 13:32:22;;;;;;;2.55;1.10;;;;;;;21.88;32.00;95130.06;6185551;23;20004;-87
2024/03/20 13:34:55;;;;;;;1.63;1.10;;;;;;;21.77;32.63;95126.50;6163006;23;20060;-88
2024/03/20 13:37:21;;;;;;;2.08;1.13;;;;;;;21.78;33.33;95139.50;6161599;23;20012;-88
2024/03/20 13:44:48;;;;;;;1.60;1.40;;;;;;;21.58;31.18;95128.69;6229794;23;20031;-86
2024/03/20 13:47:15;;;;;;;1.40;0.95;;;;;;;21.84;31.97;95140.34;6215216;23;20012;-86
2024/03/20 13:49:41;;;;;;;1.95;1.20;;;;;;;22.08;32.69;95130.22;6215114;23;20003;-87
2024/03/20 13:52:13;;;;;;;1.38;1.08;;;;;;;22.06;32.56;95142.91;6190182;23;20036;-86
2024/03/20 13:54:39;;;;;;;2.00;1.35;;;;;;;21.96;32.50;95142.81;6215099;23;20083;-87
2024/03/20 13:57:04;;;;;;;2.85;1.15;;;;;;;22.09;32.83;95141.63;6215278;23;20039;-87
2024/03/20 13:59:30;;;;;;;3.58;1.02;;;;;;;22.32;32.40;95129.91;6216006;23;20046;-87
2024/03/20 14:01:55;;;;;;;4.15;1.20;;;;;;;22.40;32.64;95132.88;6190952;23;20062;-86
2024/03/20 14:04:24;;;;;;;1.10;1.00;;;;;;;22.28;31.22;95131.47;6190900;23;20015;-86
2024/03/20 14:06:52;;;;;;;2.33;1.05;;;;;;;22.11;31.99;95131.56;6190427;23;20008;-87
2024/03/20 14:09:17;;;;;;;1.65;0.90;;;;;;;22.06;31.71;95127.03;6216553;23;20000;-86
2024/03/20 14:11:43;;;;;;;2.65;1.17;;;;;;;22.07;33.17;95136.56;6190085;23;20008;-88
2024/03/20 14:14:09;;;;;;;3.83;1.05;;;;;;;22.05;32.42;95133.38;6191516;23;20007;-88
2024/03/20 14:19:09;;;;;;;3.47;1.00;;;;;;;22.56;33.03;95128.50;6217203;22;20031;-86
2024/03/20 14:21:35;;;;;;;5.47;1.15;;;;;;;22.72;32.83;95134.69;6165637;23;20012;-86
2024/03/20 14:24:00;;;;;;;2.50;1.08;;;;;;;22.94;31.21;95134.56;6189911;23;20035;-87
2024/03/20 14:26:26;;;;;;;2.03;1.00;;;;;;;22.99;31.89;95131.13;6190690;23;20046;-86
2024/03/20 14:29:00;;;;;;;2.42;1.45;;;;;;;22.47;30.81;95127.38;6214275;23;20000;-87
2024/03/20 14:31:26;;;;;;;1.67;1.30;;;;;;;22.42;32.54;95119.38;6215814;23;20011;-88
2024/03/20 14:33:52;;;;;;;1.67;1.20;;;;;;;22.65;31.20;95126.94;6241381;22;20032;-88
2024/03/20 14:36:17;;;;;;;2.50;1.30;;;;;;;22.26;32.00;95123.78;6191383;23;20035;-88
2024/03/20 14:38:46;;;;;;;1.88;1.30;;;;;;;22.39;33.72;95133.13;6228531;23;19999;-88
2024/03/20 14:46:22;;;;;;;2.45;1.33;;;;;;;22.36;33.37;95125.72;6242152;22;20027;-86
2024/03/20 14:48:48;;;;;;;2.97;1.30;;;;;;;22.59;34.04;95129.84;6191196;23;20054;-87
2024/03/20 14:51:18;;;;;;;1.83;1.48;;;;;;;22.51;34.49;95141.72;6215647;23;20014;-86
2024/03/20 14:53:43;;;;;;;2.22;1.67;;;;;;;22.61;34.97;95136.47;6215230;23;20031;-87
2024/03/20 14:56:12;;;;;;;3.42;1.40;;;;;;;22.64;33.58;95128.03;6190852;23;20018;-87
2024/03/20 15:01:04;;;;;;;2.30;1.77;;;;;;;22.65;34.54;95129.59;6242599;22;20028;-86
2024/03/20 15:03:33;;;;;;;3.15;2.10;;;;;;;22.53;34.73;95134.31;6190745;23;20008;-87
2024/03/20 15:06:00;;;;;;;1.85;1.65;;;;;;;22.27;34.73;95120.06;6215304;23;20020;-87
2024/03/20 15:08:29;;;;;;;1.88;1.42;;;;;;;22.20;36.05;95136.16;6165780;23;20008;-88
2024/03/20 15:10:54;;;;;;;2.15;1.67;;;;;;;22.01;35.72;95133.09;6190523;23;20012;-88
2024/03/20 15:15:57;;;;;;;2.53;1.70;;;;;;;22.20;34.32;95122.91;6244941;22;20024;-88
2024/03/20 15:18:25;;;;;;;4.68;2.15;;;;;;;22.28;35.68;95128.84;6190723;23;20062;-87
2024/03/20 15:20:51;;;;;;;2.00;1.60;;;;;;;22.42;35.37;95136.06;6166889;23;20103;-88
2024/03/20 15:26:05;;;;;;;1.80;1.50;;;;;;;22.71;34.35;95127.78;6241502;22;20031;-89
2024/03/20 15:28:35;;;;;;;3.28;1.33;;;;;;;22.37;33.90;95132.59;6215918;23;20016;-88
2024/03/20 15:31:11;;;;;;;2.83;1.50;;;;;;;22.22;33.44;95144.66;6192685;23;20012;-91
2024/03/20 15:33:38;;;;;;;1.60;1.30;;;;;;;22.25;34.30;95144.16;6193933;23;20079;-88
2024/03/20 15:36:04;;;;;;;1.98;1.20;;;;;;;22.14;34.87;95141.66;6218312;23;20000;-87
2024/03/20 15:38:31;;;;;;;3.67;1.30;;;;;;;22.33;34.75;95136.81;6192582;23;19996;-89
2024/03/20 15:40:57;;;;;;;2.03;1.63;;;;;;;22.27;34.70;95148.41;6218330;23;20004;-88
2024/03/20 15:43:25;;;;;;;2.40;2.10;;;;;;;21.87;36.27;95137.19;6242756;22;20027;-88
2024/03/20 15:48:16;;;;;;;3.30;2.70;;;;;;;21.65;36.35;95135.38;6252708;22;20027;-90
2024/03/20 15:50:42;;;;;;;2.65;2.45;;;;;;;21.79;37.14;95143.72;6217811;23;20245;-88
2024/03/20 15:58:11;;;;;;;5.35;3.00;;;;;;;21.25;36.43;95136.50;6243755;22;20024;-89
2024/03/20 16:05:42;;;;;;;3.97;3.35;;;;;;;20.63;37.28;95128.81;6244899;22;20020;-88
2024/03/20 16:08:07;;;;;;;3.40;2.67;;;;;;;20.70;38.48;95147.94;6217699;23;20000;-88
2024/03/20 16:13:02;;;;;;;2.88;2.10;;;;;;;20.72;36.61;95137.13;6187916;23;20028;-88
2024/03/20 16:17:54;;;;;;;3.15;1.70;;;;;;;20.78;35.62;95125.59;6219398;22;20020;-90
2024/03/20 16:32:48;;;;;;;2.90;1.80;;;;;;;20.55;34.26;95132.63;6215534;22;20021;-88
2024/03/20 16:35:16;;;;;;;3.58;1.80;;;;;;;20.37;35.37;95140.81;6186941;23;20021;-90
2024/03/20 16:37:42;;;;;;;3.45;1.90;;;;;;;20.52;35.09;95148.97;6186918;23;20041;-89
2024/03/20 16:40:10;;;;;;;2.88;1.85;;;;;;;20.59;35.28;95144.31;6187586;23;20016;-88
2024/03/20 16:42:35;;;;;;;3.78;1.88;;;;;;;20.61;34.61;95146.75;6186295;23;20122;-88
2024/03/20 16:45:02;;;;;;;2.38;1.98;;;;;;;20.49;33.69;95133.59;6187936;23;20008;-89
2024/03/20 16:47:27;;;;;;;2.47;1.98;;;;;;;20.33;33.82;95129.13;6187213;23;20000;-89
2024/03/20 16:54:54;;;;;;;2.45;1.98;;;;;;;20.28;34.36;95133.28;6215926;22;20032;-88
2024/03/20 16:57:22;;;;;;;3.78;1.73;;;;;;;20.30;33.90;95131.22;6156962;23;20008;-89
2024/03/20 16:59:53;;;;;;;3.80;1.83;;;;;;;20.13;34.09;95119.84;6186889;23;20016;-89
2024/03/20 17:02:20;;;;;;;3.53;2.05;;;;;;;20.18;34.51;95127.88;6187398;23;20008;-89
2024/03/20 17:04:49;;;;;;;2.55;1.90;;;;;;;20.23;34.11;95135.06;6230211;22;20088;-89
2024/03/20 17:07:15;;;;;;;5.53;1.73;;;;;;;20.13;35.08;95140.97;6187085;23;20094;-89
2024/03/20 17:09:42;;;;;;;3.80;1.85;;;;;;;19.94;36.40;95137.75;6187873;23;20015;-89
2024/03/20 17:12:13;;;;;;;2.25;1.58;;;;;;;19.88;36.62;95130.78;6186344;23;20106;-87
2024/03/20 17:14:44;;;;;;;2.10;1.90;;;;;;;19.96;37.36;95129.59;6158701;23;20041;-88
2024/03/20 17:19:36;;;;;;;4.70;2.03;;;;;;;19.75;36.83;95123.16;6213145;22;20036;-88
2024/03/20 17:22:05;;;;;;;3.80;2.25;;;;;;;19.68;36.40;95115.34;6157456;23;20012;-88
2024/03/20 17:24:31;;;;;;;5.13;2.50;;;;;;;19.53;37.09;95108.78;6182323;23;20013;-90
2024/03/20 17:26:59;;;;;;;3.92;2.38;;;;;;;19.41;36.59;95102.75;6187274;23;20031;-88
2024/03/20 17:29:25;;;;;;;4.70;2.70;;;;;;;19.25;37.13;95114.06;6186009;23;20016;-88
2024/03/20 17:46:55;;;;;;;4.32;2.97;;;;;;;17.94;43.17;95094.88;6204076;23;20025;-88
2024/03/20 17:49:21;;;;;;;3.75;2.83;;;;;;;18.00;43.19;95092.38;6137908;23;20020;-88
2024/03/20 17:51:46;;;;;;;6.32;2.83;;;;;;;18.05;42.91;95087.19;6137924;23;20009;-88
2024/03/20 17:54:15;;;;;;;3.20;2.65;;;;;;;17.87;43.75;95078.38;6162201;23;20080;-88
2024/03/20 17:56:41;;;;;;;2.60;2.33;;;;;;;17.82;43.81;95090.56;6162702;23;20067;-88
2024/03/20 18:02:23;;;;;;;2.50;2.28;;;;;;;17.43;44.05;95090.94;6160369;23;20029;-88
2024/03/20 18:04:52;;;;;;;3.17;2.05;;;;;;;17.09;44.08;95081.88;6101836;23;20017;-88
2024/03/20 18:07:18;;;;;;;2.10;1.65;;;;;;;17.14;43.46;95089.91;6100152;23;20013;-89
2024/03/20 18:09:43;;;;;;;4.95;2.50;;;;;;;17.02;44.30;95100.34;6127826;23;20092;-88
2024/03/20 18:12:10;;;;;;;2.53;1.40;;;;;;;16.51;45.50;95098.88;6103450;23;20040;-87
2024/03/20 18:14:35;;;;;;;1.58;1.40;;;;;;;16.35;44.91;95087.88;6207209;22;20031;-89
2024/03/20 18:17:01;;;;;;;3.78;1.75;;;;;;;16.37;44.50;95092.91;6187248;23;20000;-89
2024/03/20 18:19:29;;;;;;;2.25;1.60;;;;;;;16.31;44.76;95089.34;6186626;23;20040;-88
2024/03/20 18:21:55;;;;;;;2.00;1.80;;;;;;;16.66;44.41;95106.34;6163352;23;20015;-89
2024/03/20 18:32:10;;;;;;;2.80;2.13;;;;;;;16.30;45.64;95095.63;6225109;22;20032;-88
2024/03/20 18:34:37;;;;;;;3.05;2.10;;;;;;;16.07;45.49;95103.28;6161542;23;20024;-88
2024/03/20 18:37:03;;;;;;;3.65;2.10;;;;;;;15.90;45.86;95093.31;6162571;23;20090;-88
2024/03/20 18:49:44;;;;;;;2.10;1.90;;;;;;;15.53;45.95;95090.50;6204287;22;20023;-88
2024/03/20 18:52:14;;;;;;;2.58;2.08;;;;;;;15.57;45.78;95091.72;6158176;23;20013;-90
2024/03/20 18:54:39;;;;;;;3.20;2.00;;;;;;;15.51;45.95;95092.53;6138748;23;20101;-88
2024/03/20 19:02:57;;;;;;;2.47;1.90;;;;;;;15.50;45.77;95114.53;6163563;23;20100;-90
2024/03/20 19:05:23;;;;;;;3.13;2.03;;;;;;;15.50;45.82;95101.44;6103128;23;20017;-89
2024/03/20 19:07:49;;;;;;;3.85;2.40;;;;;;;15.64;45.47;95123.91;6103176;23;20009;-88
2024/03/20 19:10:15;;;;;;;3.55;1.90;;;;;;;15.46;46.34;95131.69;6127537;23;20013;-89
2024/03/20 19:17:41;;;;;;;2.22;2.00;;;;;;;15.40;45.56;95128.09;6203853;23;20028;-88
2024/03/20 19:20:14;;;;;;;1.90;1.63;;;;;;;15.70;45.47;95142.44;6162083;23;20013;-87
2024/03/20 19:22:40;;;;;;;2.30;1.90;;;;;;;15.37;45.71;95139.00;6162527;23;20022;-88
2024/03/20 19:25:06;;;;;;;2.70;1.83;;;;;;;15.33;46.20;95148.28;6186805;23;20012;-88
2024/03/20 19:27:33;;;;;;;3.13;2.13;;;;;;;15.32;46.46;95158.97;6186554;23;20009;-90
2024/03/20 19:35:11;;;;;;;2.22;1.85;;;;;;;15.62;43.97;95154.00;6190823;23;20036;-88
2024/03/20 19:37:40;;;;;;;2.33;2.10;;;;;;;15.36;45.10;95166.19;6186772;23;20039;-89
2024/03/20 19:40:08;;;;;;;2.22;1.83;;;;;;;15.54;45.46;95159.50;6162245;23;20091;-89
2024/03/20 19:45:11;;;;;;;2.40;1.90;;;;;;;15.60;44.92;95162.06;6215635;22;20025;-88
2024/03/20 19:47:39;;;;;;;2.22;1.65;;;;;;;15.62;44.46;95162.66;6186750;23;20009;-88
2024/03/20 19:50:05;;;;;;;2.85;1.90;;;;;;;15.78;43.90;95174.50;6138769;23;20028;-88
2024/03/20 20:13:05;;;;;;;3.42;2.20;;;;;;;15.18;45.62;95192.28;6224924;23;20017;-88
2024/03/20 20:15:31;;;;;;;2.58;1.90;;;;;;;14.84;45.97;95189.75;6215777;23;20079;-89
2024/03/20 20:20:21;;;;;;;3.17;2.33;;;;;;;14.77;46.31;95199.41;6244032;22;20126;-89
2024/03/20 20:33:08;;;;;;;2.97;1.50;;;;;;;14.51;46.67;95196.78;6242008;22;20020;-87
2024/03/20 20:35:36;;;;;;;2.17;1.10;;;;;;;14.57;46.65;95196.84;6190921;23;20004;-86
2024/03/20 20:38:02;;;;;;;3.33;1.52;;;;;;;14.52;46.48;95195.81;6215952;23;20014;-86
2024/03/20 20:40:29;;;;;;;2.28;1.60;;;;;;;14.60;46.36;95191.22;6215980;23;20000;-86
2024/03/20 20:42:55;;;;;;;2.38;1.58;;;;;;;14.37;47.21;95196.81;6189941;23;20020;-86
2024/03/20 20:45:21;;;;;;;2.15;1.35;;;;;;;14.58;47.00;95192.41;6192424;23;20087;-86
2024/03/20 20:47:49;;;;;;;1.98;1.23;;;;;;;14.86;46.43;95205.25;6191864;23;20095;-86
2024/03/20 20:50:14;;;;;;;2.47;1.30;;;;;;;14.97;45.89;95195.97;6215847;23;20023;-86
2024/03/20 20:52:42;;;;;;;1.55;1.30;;;;;;;14.69;46.14;95191.78;6191120;23;20064;-87
2024/03/20 20:55:08;;;;;;;1.40;1.15;;;;;;;14.61;46.83;95205.09;6190877;23;20008;-87
2024/03/20 20:57:36;;;;;;;1.73;1.23;;;;;;;14.65;46.54;95207.09;6216874;23;20348;-87
2024/03/20 21:00:04;;;;;;;1.75;1.40;;;;;;;14.77;46.47;95203.84;6216584;23;20007;-86
2024/03/20 21:21:45;;;;;;;1.75;1.30;;;;;;;14.45;46.35;95195.81;6242108;23;20035;-87
2024/03/20 21:24:13;;;;;;;2.88;1.33;;;;;;;14.44;46.56;95194.19;6215516;23;20008;-86
2024/03/20 21:26:38;;;;;;;2.00;1.48;;;;;;;14.31;46.59;95194.19;6215965;23;20081;-87
2024/03/20 21:29:04;;;;;;;1.80;1.50;;;;;;;14.48;46.17;95175.25;6213939;23;20008;-85
2024/03/20 21:31:29;;;;;;;4.03;1.75;;;;;;;14.41;46.60;95191.97;6189698;23;20099;-88
2024/03/20 21:33:55;;;;;;;4.35;1.45;;;;;;;14.46;46.29;95190.38;6215620;23;20012;-87
2024/03/20 21:36:22;;;;;;;2.47;1.30;;;;;;;14.43;46.55;95201.25;6165801;23;20012;-87
2024/03/20 21:38:48;;;;;;;2.08;1.40;;;;;;;14.37;46.78;95196.00;6191580;23;20000;-86
2024/03/20 21:41:17;;;;;;;2.08;1.40;;;;;;;14.45;46.61;95203.66;6215413;23;20030;-87
2024/03/20 21:43:42;;;;;;;2.97;1.40;;;;;;;14.51;46.19;95202.03;6216010;23;20008;-87
2024/03/20 21:46:08;;;;;;;3.35;1.50;;;;;;;14.46;46.37;95205.25;6165885;23;20008;-87
2024/03/20 21:48:35;;;;;;;2.20;1.58;;;;;;;14.27;46.54;95191.97;6190780;23;20024;-86
2024/03/20 21:51:04;;;;;;;2.08;1.50;;;;;;;14.54;45.89;95204.25;6190641;23;20004;-87
2024/03/20 21:53:30;;;;;;;2.65;1.73;;;;;;;14.45;46.29;95201.06;6190313;23;20004;-87
2024/03/20 21:58:31;;;;;;;2.15;1.20;;;;;;;14.33;46.34;95210.50;6241186;23;20024;-87
2024/03/20 22:00:58;;;;;;;1.63;1.10;;;;;;;14.36;46.16;95224.00;6214545;23;20012;-87
2024/03/20 22:03:24;;;;;;;1.55;1.10;;;;;;;14.37;46.05;95225.59;6240100;23;20026;-86
2024/03/20 22:05:53;;;;;;;1.27;1.17;;;;;;;13.98;47.33;95235.00;6189871;23;20008;-86
2024/03/20 22:08:21;;;;;;;2.25;1.10;;;;;;;14.24;46.72;95243.88;6240218;23;20035;-86
2024/03/20 22:10:47;;;;;;;1.77;1.30;;;;;;;14.60;45.33;95237.50;6190987;23;20146;-86
2024/03/20 22:13:13;;;;;;;1.70;1.23;;;;;;;14.66;44.83;95240.13;6240371;23;20011;-86
2024/03/20 22:15:38;;;;;;;2.25;1.30;;;;;;;14.48;45.10;95230.22;6190032;23;20024;-86
2024/03/20 22:18:04;;;;;;;2.38;1.00;;;;;;;14.65;44.77;95235.09;6215804;23;20000;-86
2024/03/20 22:20:29;;;;;;;2.92;1.15;;;;;;;14.43;45.93;95237.06;6240767;23;20079;-87
2024/03/20 22:22:55;;;;;;;2.03;1.20;;;;;;;14.11;46.68;95233.41;6215881;23;20011;-85
2024/03/20 22:25:24;;;;;;;1.20;1.10;;;;;;;14.15;46.50;95242.50;6216544;23;20007;-87
2024/03/20 22:27:50;;;;;;;1.33;1.20;;;;;;;13.92;46.80;95234.97;6215878;23;20083;-87
2024/03/20 22:32:46;;;;;;;2.85;1.35;;;;;;;14.22;45.94;95232.81;6224167;22;20064;-87
2024/03/20 22:35:19;;;;;;;3.05;1.60;;;;;;;14.20;46.16;95229.59;6161176;23;20013;-87
2024/03/20 22:37:45;;;;;;;2.33;1.70;;;;;;;14.12;45.56;95232.41;6185911;23;20007;-86
2024/03/20 22:40:12;;;;;;;2.78;1.60;;;;;;;13.69;47.02;95238.75;6161483;23;20066;-87
2024/03/20 22:42:37;;;;;;;3.45;1.38;;;;;;;13.81;46.84;95254.69;6161490;23;20015;-87
2024/03/20 22:45:03;;;;;;;2.45;1.20;;;;;;;13.88;46.43;95250.28;6161566;23;20036;-88
2024/03/20 22:47:29;;;;;;;1.08;1.00;;;;;;;14.12;45.92;95250.72;6161573;23;20067;-88
2024/03/20 22:49:54;;;;;;;2.13;1.10;;;;;;;14.19;45.74;95254.97;6161539;23;20019;-89
2024/03/20 22:52:20;;;;;;;1.10;0.93;;;;;;;14.28;45.59;95260.81;6213019;23;20023;-88
2024/03/20 22:54:46;;;;;;;2.17;1.00;;;;;;;14.23;45.13;95264.00;6185883;23;20004;-87
2024/03/20 22:57:12;;;;;;;1.67;1.10;;;;;;;14.22;45.41;95272.88;6185986;23;20003;-88
2024/03/20 23:02:05;;;;;;;2.22;1.00;;;;;;;14.11;45.50;95264.78;6223952;22;20020;-88
2024/03/20 23:04:31;;;;;;;1.48;1.10;;;;;;;14.25;45.03;95266.44;6137765;23;20039;-86
2024/03/20 23:06:56;;;;;;;3.38;1.20;;;;;;;14.10;45.59;95277.06;6161841;23;20013;-88
2024/03/20 23:09:22;;;;;;;1.50;1.00;;;;;;;13.96;45.80;95271.00;6170868;23;20064;-87
2024/03/20 23:11:48;;;;;;;1.85;1.10;;;;;;;13.98;45.78;95276.84;6187745;23;20096;-88
2024/03/20 23:14:14;;;;;;;3.30;1.10;;;;;;;13.81;45.86;95270.34;6186070;23;20044;-87
2024/03/20 23:19:05;;;;;;;2.45;1.10;;;;;;;13.97;45.78;95280.44;6212289;22;20024;-88
2024/03/20 23:21:33;;;;;;;2.17;1.10;;;;;;;13.55;46.89;95287.53;6136791;23;20044;-86
2024/03/20 23:23:59;;;;;;;1.45;1.10;;;;;;;13.49;46.73;95283.09;6161775;23;20017;-88
2024/03/20 23:26:25;;;;;;;1.70;1.20;;;;;;;13.45;47.95;95289.72;6136742;23;20005;-87
2024/03/20 23:28:50;;;;;;;1.40;1.10;;;;;;;13.89;46.35;95293.72;6161560;23;20096;-88
2024/03/20 23:31:18;;;;;;;1.98;1.15;;;;;;;13.90;46.26;95290.09;6136782;23;20019;-88
2024/03/20 23:33:44;;;;;;;2.65;1.60;;;;;;;13.66;46.43;95300.06;6161875;23;20024;-86
2024/03/20 23:36:10;;;;;;;2.47;1.40;;;;;;;13.62;46.79;95298.03;6186138;23;20107;-87
2024/03/20 23:38:36;;;;;;;3.95;2.33;;;;;;;13.56;46.57;95296.19;6161509;23;20020;-86
2024/03/20 23:41:02;;;;;;;2.55;1.50;;;;;;;13.65;46.65;95300.25;6186246;23;20004;-87
2024/03/20 23:43:30;;;;;;;2.15;1.10;;;;;;;13.75;46.04;95289.44;6161320;23;20012;-86
2024/03/20 23:48:23;;;;;;;1.67;0.90;;;;;;;14.06;45.66;95294.97;6221421;22;20028;-87
2024/03/20 23:50:49;;;;;;;1.20;1.02;;;;;;;14.24;45.47;95302.25;6161329;23;20098;-86
2024/03/20 23:53:15;;;;;;;1.48;1.08;;;;;;;13.73;46.98;95299.25;6162430;23;20034;-86
2024/03/20 23:55:40;;;;;;;1.50;0.95;;;;;;;13.55;47.26;95305.03;6138367;23;20012;-86
2024/03/20 23:58:06;;;;;;;1.80;0.90;;;;;;;13.53;47.20;95315.66;6162550;23;20009;-87
